createdAt,value
2024-02-09T00:01:15.653Z,93052.09
2024-02-09T00:03:43.039Z,93058.00
2024-02-09T00:06:12.639Z,93046.94
2024-02-09T00:08:42.191Z,93041.34
2024-02-09T00:11:09.878Z,93031.22
2024-02-09T00:13:36.600Z,93029.38
2024-02-09T00:16:03.432Z,93017.84
2024-02-09T00:18:30.141Z,93022.03
2024-02-09T00:20:58.638Z,93011.81
2024-02-09T00:23:25.888Z,93020.44
2024-02-09T00:25:53.147Z,93009.78
2024-02-09T00:28:21.432Z,93005.56
2024-02-09T00:30:48.814Z,92997.16
2024-02-09T00:33:16.036Z,92989.81
2024-02-09T00:35:43.656Z,92989.97
2024-02-09T00:38:13.381Z,92993.00
2024-02-09T00:40:40.769Z,92988.41
2024-02-09T00:43:08.318Z,92987.97
2024-02-09T00:45:35.900Z,92978.06
2024-02-09T00:48:04.377Z,92981.97
2024-02-09T00:50:32.042Z,92976.59
2024-02-09T00:53:02.071Z,92967.31
2024-02-09T00:55:30.722Z,92977.97
2024-02-09T00:58:00.354Z,92961.47
2024-02-09T01:00:31.905Z,92963.72
2024-02-09T01:02:59.386Z,92955.66
2024-02-09T01:05:26.121Z,92942.81
2024-02-09T01:07:53.017Z,92948.59
2024-02-09T01:10:19.794Z,92952.75
2024-02-09T01:13:04.981Z,92950.59
2024-02-09T01:15:50.374Z,92963.00
2024-02-09T01:18:35.813Z,92964.63
2024-02-09T01:21:21.155Z,92964.81
2024-02-09T01:24:06.640Z,92961.25
2024-02-09T01:26:51.745Z,92955.00
2024-02-09T01:29:36.801Z,92953.19
2024-02-09T01:32:21.983Z,92943.91
2024-02-09T01:35:07.069Z,92939.06
2024-02-09T01:37:52.623Z,92937.78
2024-02-09T01:40:37.877Z,92938.44
2024-02-09T01:43:23.926Z,92930.63
2024-02-09T01:46:11.548Z,92927.34
2024-02-09T01:48:58.506Z,92921.31
2024-02-09T01:51:44.430Z,92915.41
2024-02-09T01:54:30.722Z,92900.84
2024-02-09T01:57:16.451Z,92894.19
2024-02-09T02:00:02.904Z,92892.25
2024-02-09T02:02:57.895Z,92888.94
2024-02-09T02:05:44.434Z,92882.75
2024-02-09T02:08:29.824Z,92878.56
2024-02-09T02:11:15.275Z,92888.09
2024-02-09T02:14:00.544Z,92878.13
2024-02-09T02:16:45.723Z,92877.94
2024-02-09T02:19:31.625Z,92871.16
2024-02-09T02:22:24.586Z,92878.69
2024-02-09T02:25:16.499Z,92871.16
2024-02-09T02:28:01.726Z,92870.97
2024-02-09T02:30:47.181Z,92867.31
2024-02-09T02:33:32.487Z,92855.22
2024-02-09T02:36:17.800Z,92865.00
2024-02-09T02:39:03.208Z,92855.22
2024-02-09T02:41:29.795Z,92858.66
2024-02-09T02:43:56.346Z,92859.06
2024-02-09T02:46:22.996Z,92859.06
2024-02-09T02:49:08.306Z,92866.56
2024-02-09T02:51:53.831Z,92871.28
2024-02-09T02:54:39.284Z,92861.81
2024-02-09T02:57:24.634Z,92852.34
2024-02-09T03:00:11.510Z,92838.91
2024-02-09T03:02:57.838Z,92834.63
2024-02-09T03:05:26.352Z,92819.47
2024-02-09T03:08:43.301Z,92818.16
2024-02-09T03:10:44.261Z,92816.06
2024-02-09T03:13:10.971Z,92810.66
2024-02-09T03:15:37.685Z,92812.00
2024-02-09T03:18:07.291Z,92807.56
2024-02-09T03:20:33.941Z,92812.94
2024-02-09T03:23:03.623Z,92815.19
2024-02-09T03:25:30.612Z,92808.13
2024-02-09T03:27:57.526Z,92804.53
2024-02-09T03:30:24.251Z,92807.03
2024-02-09T03:32:52.464Z,92808.91
2024-02-09T03:35:19.424Z,92815.41
2024-02-09T03:37:46.753Z,92813.63
2024-02-09T03:40:13.887Z,92829.22
2024-02-09T03:42:42.582Z,92821.09
2024-02-09T03:45:09.390Z,92831.03
2024-02-09T03:47:36.384Z,92827.56
2024-02-09T03:50:05.643Z,92826.66
2024-02-09T03:52:32.638Z,92827.69
2024-02-09T03:54:59.466Z,92826.13
2024-02-09T03:57:26.840Z,92833.44
2024-02-09T03:59:54.004Z,92829.22
2024-02-09T04:02:21.046Z,92825.88
2024-02-09T04:04:50.787Z,92811.44
2024-02-09T04:07:22.369Z,92813.44
2024-02-09T04:10:14.545Z,92816.13
2024-02-09T04:12:38.814Z,92816.19
2024-02-09T04:15:06.046Z,92814.63
2024-02-09T04:17:32.873Z,92809.50
2024-02-09T04:19:59.472Z,92812.81
2024-02-09T04:22:28.734Z,92806.91
2024-02-09T04:24:56.101Z,92807.91
2024-02-09T04:27:22.811Z,92796.59
2024-02-09T04:29:49.652Z,92794.25
2024-02-09T04:32:16.389Z,92782.34
2024-02-09T04:34:43.312Z,92784.84
2024-02-09T04:37:10.041Z,92781.44
2024-02-09T04:39:36.792Z,92782.06
2024-02-09T04:42:03.724Z,92774.56
2024-02-09T04:44:30.472Z,92778.91
2024-02-09T04:46:57.166Z,92781.31
2024-02-09T04:49:23.908Z,92786.28
2024-02-09T04:51:50.635Z,92786.97
2024-02-09T04:54:17.381Z,92785.97
2024-02-09T04:56:44.153Z,92785.75
2024-02-09T04:59:11.102Z,92781.78
2024-02-09T05:01:39.937Z,92784.72
2024-02-09T05:04:10.885Z,92775.66
2024-02-09T05:06:37.585Z,92771.91
2024-02-09T05:09:07.083Z,92773.84
2024-02-09T05:11:37.970Z,92769.16
2024-02-09T05:14:08.350Z,92759.56
2024-02-09T05:16:37.933Z,92766.50
2024-02-09T05:19:04.893Z,92749.47
2024-02-09T05:21:35.988Z,92748.38
2024-02-09T05:24:04.524Z,92748.44
2024-02-09T05:26:31.888Z,92748.19
2024-02-09T05:28:58.548Z,92756.94
2024-02-09T05:31:27.143Z,92754.91
2024-02-09T05:33:54.400Z,92759.06
2024-02-09T05:36:22.158Z,92755.38
2024-02-09T05:38:49.335Z,92756.59
2024-02-09T05:41:19.257Z,92759.56
2024-02-09T05:43:48.647Z,92757.38
2024-02-09T05:46:15.820Z,92759.22
2024-02-09T05:48:45.819Z,92758.50
2024-02-09T05:51:13.765Z,92746.00
2024-02-09T05:53:42.229Z,92756.69
2024-02-09T05:56:16.096Z,92757.81
2024-02-09T05:58:43.084Z,92756.09
2024-02-09T06:01:10.400Z,92758.53
2024-02-09T06:03:39.560Z,92761.47
2024-02-09T06:06:06.829Z,92765.81
2024-02-09T06:08:35.310Z,92766.00
2024-02-09T06:11:03.872Z,92760.38
2024-02-09T06:13:31.579Z,92767.06
2024-02-09T06:15:59.793Z,92769.59
2024-02-09T06:18:27.645Z,92771.78
2024-02-09T06:20:55.132Z,92765.16
2024-02-09T06:23:27.780Z,92760.66
2024-02-09T06:25:54.514Z,92760.03
2024-02-09T06:28:21.324Z,92758.00
2024-02-09T06:30:48.883Z,92761.66
2024-02-09T06:33:17.357Z,92761.28
2024-02-09T06:35:44.481Z,92765.16
2024-02-09T06:38:12.706Z,92757.75
2024-02-09T06:40:40.012Z,92755.75
2024-02-09T06:43:07.675Z,92753.25
2024-02-09T06:45:37.799Z,92754.84
2024-02-09T06:48:07.101Z,92760.53
2024-02-09T06:50:35.628Z,92758.72
2024-02-09T06:53:03.206Z,92760.38
2024-02-09T06:55:30.166Z,92766.16
2024-02-09T06:58:00.662Z,92759.75
2024-02-09T07:00:27.580Z,92758.03
2024-02-09T07:02:56.052Z,92759.72
2024-02-09T07:05:25.670Z,92763.22
2024-02-09T07:07:56.065Z,92764.28
2024-02-09T07:10:26.081Z,92764.13
2024-02-09T07:12:55.374Z,92773.06
2024-02-09T07:15:22.465Z,92786.53
2024-02-09T07:17:50.040Z,92776.69
2024-02-09T07:20:19.887Z,92774.22
2024-02-09T07:22:47.334Z,92783.31
2024-02-09T07:25:14.207Z,92780.47
2024-02-09T07:27:41.056Z,92779.59
2024-02-09T07:30:08.286Z,92768.19
2024-02-09T07:32:34.956Z,92763.38
2024-02-09T07:35:02.458Z,92772.91
2024-02-09T07:37:29.288Z,92777.66
2024-02-09T07:39:55.952Z,92769.19
2024-02-09T07:42:24.164Z,92760.81
2024-02-09T07:44:50.897Z,92758.75
2024-02-09T07:47:17.539Z,92756.63
2024-02-09T07:49:44.868Z,92761.59
2024-02-09T07:52:11.735Z,92764.75
2024-02-09T07:54:38.441Z,92763.91
2024-02-09T07:57:07.387Z,92753.78
2024-02-09T07:59:34.039Z,92757.41
2024-02-09T08:02:00.891Z,92750.13
2024-02-09T08:04:32.407Z,92747.53
2024-02-09T08:06:59.422Z,92750.06
2024-02-09T08:09:26.067Z,92756.63
2024-02-09T08:11:52.709Z,92752.00
2024-02-09T08:14:19.360Z,92752.31
2024-02-09T08:16:47.825Z,92739.97
2024-02-09T08:19:14.873Z,92744.88
2024-02-09T08:21:41.807Z,92746.56
2024-02-09T08:24:11.109Z,92745.03
2024-02-09T08:26:45.471Z,92744.53
2024-02-09T08:29:19.887Z,92738.78
2024-02-09T08:31:46.787Z,92740.00
2024-02-09T08:34:14.199Z,92743.75
2024-02-09T08:36:41.228Z,92743.75
2024-02-09T08:39:07.953Z,92742.00
2024-02-09T08:41:35.461Z,92748.06
2024-02-09T08:44:03.060Z,92741.56
2024-02-09T08:46:30.033Z,92743.25
2024-02-09T08:48:57.783Z,92739.84
2024-02-09T08:51:24.683Z,92736.47
2024-02-09T08:53:51.403Z,92739.78
2024-02-09T08:56:18.181Z,92741.88
2024-02-09T08:58:47.580Z,92739.56
2024-02-09T09:01:14.570Z,92740.28
2024-02-09T09:03:41.409Z,92741.03
2024-02-09T09:06:09.070Z,92743.13
2024-02-09T09:08:36.082Z,92738.56
2024-02-09T09:11:03.081Z,92731.47
2024-02-09T09:13:30.144Z,92732.41
2024-02-09T09:15:56.998Z,92730.50
2024-02-09T09:18:23.808Z,92733.31
2024-02-09T09:20:51.818Z,92733.75
2024-02-09T09:23:18.685Z,92741.44
2024-02-09T09:25:45.412Z,92738.28
2024-02-09T09:28:13.724Z,92731.91
2024-02-09T09:30:40.537Z,92731.13
2024-02-09T09:33:07.267Z,92725.72
2024-02-09T09:35:34.058Z,92729.56
2024-02-09T09:38:00.798Z,92736.38
2024-02-09T09:40:32.437Z,92735.03
2024-02-09T09:42:59.475Z,92734.13
2024-02-09T09:45:26.294Z,92736.94
2024-02-09T09:47:56.761Z,92735.75
2024-02-09T09:50:23.790Z,92737.56
2024-02-09T09:52:53.630Z,92726.91
2024-02-09T09:55:21.946Z,92731.84
2024-02-09T09:57:50.732Z,92725.25
2024-02-09T10:00:18.729Z,92723.53
2024-02-09T10:02:45.523Z,92735.59
2024-02-09T10:05:12.613Z,92736.81
2024-02-09T10:07:41.853Z,92729.00
2024-02-09T10:10:12.999Z,92723.72
2024-02-09T10:12:40.192Z,92720.78
2024-02-09T10:15:07.425Z,92713.16
2024-02-09T10:17:34.200Z,92708.56
2024-02-09T10:20:01.397Z,92715.31
2024-02-09T10:22:28.508Z,92722.28
2024-02-09T10:24:56.185Z,92719.88
2024-02-09T10:27:22.913Z,92720.72
2024-02-09T10:29:49.667Z,92710.19
2024-02-09T10:32:16.264Z,92708.00
2024-02-09T10:34:43.355Z,92704.53
2024-02-09T10:37:17.113Z,92701.22
2024-02-09T10:39:48.592Z,92698.59
2024-02-09T10:42:17.977Z,92695.00
2024-02-09T10:44:47.859Z,92693.94
2024-02-09T10:47:16.104Z,92693.91
2024-02-09T10:49:45.410Z,92699.66
2024-02-09T10:52:15.215Z,92702.13
2024-02-09T10:54:49.616Z,92689.34
2024-02-09T10:57:16.619Z,92670.13
2024-02-09T10:59:43.643Z,92659.88
2024-02-09T11:02:10.826Z,92655.31
2024-02-09T11:04:37.789Z,92663.53
2024-02-09T11:07:05.610Z,92661.84
2024-02-09T11:09:32.604Z,92661.81
2024-02-09T11:12:00.635Z,92656.84
2024-02-09T11:14:35.366Z,92648.00
2024-02-09T11:17:08.291Z,92653.84
2024-02-09T11:19:39.234Z,92647.22
2024-02-09T11:22:06.494Z,92649.44
2024-02-09T11:24:34.197Z,92641.09
2024-02-09T11:27:01.299Z,92635.19
2024-02-09T11:29:28.128Z,92628.66
2024-02-09T11:31:58.162Z,92639.75
2024-02-09T11:34:28.661Z,92626.75
2024-02-09T11:37:02.671Z,92611.75
2024-02-09T11:39:30.074Z,92612.50
2024-02-09T11:44:23.678Z,92597.94
2024-02-09T11:46:53.265Z,92602.81
2024-02-09T11:49:21.151Z,92593.28
2024-02-09T11:51:50.436Z,92596.34
2024-02-09T11:54:18.877Z,92609.94
2024-02-09T11:56:47.180Z,92603.31
2024-02-09T11:59:13.917Z,92596.66
2024-02-09T12:01:43.900Z,92597.91
2024-02-09T12:04:11.571Z,92587.16
2024-02-09T12:06:38.611Z,92583.72
2024-02-09T12:09:05.726Z,92578.97
2024-02-09T12:11:32.541Z,92576.53
2024-02-09T12:13:59.539Z,92576.09
2024-02-09T12:16:26.277Z,92580.28
2024-02-09T12:18:53.768Z,92570.81
2024-02-09T12:21:20.532Z,92578.66
2024-02-09T12:23:47.582Z,92563.53
2024-02-09T12:26:15.758Z,92576.72
2024-02-09T12:28:42.498Z,92573.84
2024-02-09T12:31:09.660Z,92585.50
2024-02-09T12:33:43.327Z,92577.13
2024-02-09T12:36:10.354Z,92584.69
2024-02-09T12:38:44.007Z,92579.75
2024-02-09T12:41:15.192Z,92575.09
2024-02-09T12:43:46.281Z,92568.97
2024-02-09T12:46:13.183Z,92560.66
2024-02-09T12:48:41.458Z,92561.66
2024-02-09T12:51:08.273Z,92557.72
2024-02-09T12:53:36.187Z,92563.69
2024-02-09T12:56:04.407Z,92548.97
2024-02-09T12:58:31.745Z,92553.81
2024-02-09T13:01:01.689Z,92550.81
2024-02-09T13:03:29.744Z,92548.53
2024-02-09T13:05:56.735Z,92551.31
2024-02-09T13:08:23.459Z,92545.84
2024-02-09T13:10:51.444Z,92545.16
2024-02-09T13:13:19.467Z,92534.13
2024-02-09T13:15:46.322Z,92539.72
2024-02-09T13:18:13.485Z,92537.31
2024-02-09T13:20:44.148Z,92544.84
2024-02-09T13:23:12.367Z,92538.56
2024-02-09T13:25:41.692Z,92534.69
2024-02-09T13:28:11.558Z,92531.91
2024-02-09T13:30:38.304Z,92529.28
2024-02-09T13:33:05.226Z,92525.22
2024-02-09T13:35:33.991Z,92529.53
2024-02-09T13:38:00.877Z,92520.28
2024-02-09T13:40:27.633Z,92523.44
2024-02-09T13:42:54.870Z,92523.53
2024-02-09T13:45:22.477Z,92520.53
2024-02-09T13:47:49.392Z,92515.72
2024-02-09T13:50:16.663Z,92517.34
2024-02-09T13:52:47.416Z,92510.53
2024-02-09T13:55:14.552Z,92513.94
2024-02-09T13:57:45.227Z,92514.94
2024-02-09T14:00:13.874Z,92506.53
2024-02-09T14:02:40.959Z,92513.47
2024-02-09T14:05:07.743Z,92523.19
2024-02-09T14:07:34.497Z,92517.88
2024-02-09T14:10:01.554Z,92509.59
2024-02-09T14:12:29.041Z,92511.34
2024-02-09T14:14:55.798Z,92505.03
2024-02-09T14:17:22.551Z,92492.78
2024-02-09T14:19:49.318Z,92497.22
2024-02-09T14:22:16.143Z,92495.13
2024-02-09T14:24:42.796Z,92500.56
2024-02-09T14:27:12.722Z,92496.75
2024-02-09T14:29:40.853Z,92502.09
2024-02-09T14:32:10.542Z,92498.00
2024-02-09T14:34:39.252Z,92501.69
2024-02-09T14:37:06.183Z,92497.69
2024-02-09T14:39:32.913Z,92499.69
2024-02-09T14:41:59.659Z,92495.09
2024-02-09T14:44:26.337Z,92496.13
2024-02-09T14:46:53.204Z,92497.47
2024-02-09T14:49:20.393Z,92499.25
2024-02-09T14:51:47.206Z,92485.16
2024-02-09T14:54:13.892Z,92483.66
2024-02-09T14:56:48.783Z,92500.53
2024-02-09T14:59:22.701Z,92497.63
2024-02-09T15:01:51.185Z,92498.91
2024-02-09T15:04:18.042Z,92490.06
2024-02-09T15:06:45.564Z,92490.13
2024-02-09T15:09:12.905Z,92494.72
2024-02-09T15:11:42.303Z,92488.19
2024-02-09T15:14:10.842Z,92486.44
2024-02-09T15:16:38.476Z,92481.59
2024-02-09T15:19:05.884Z,92479.59
2024-02-09T15:21:33.392Z,92477.66
2024-02-09T15:24:00.955Z,92478.56
2024-02-09T15:26:27.971Z,92480.19
2024-02-09T15:28:57.661Z,92475.31
2024-02-09T15:31:24.877Z,92473.16
2024-02-09T15:33:51.893Z,92475.63
2024-02-09T15:36:19.130Z,92468.16
2024-02-09T15:38:45.853Z,92465.16
2024-02-09T15:41:38.950Z,92470.22
2024-02-09T15:44:05.668Z,92477.31
2024-02-09T15:46:53.309Z,92482.16
2024-02-09T15:49:26.972Z,92472.13
2024-02-09T15:51:56.255Z,92465.78
2024-02-09T15:54:23.506Z,92467.91
2024-02-09T15:56:50.297Z,92464.75
2024-02-09T15:59:17.020Z,92460.34
2024-02-09T16:01:45.142Z,92473.84
2024-02-09T16:04:11.978Z,92474.22
2024-02-09T16:06:38.773Z,92477.00
2024-02-09T16:09:05.537Z,92470.53
2024-02-09T16:11:33.713Z,92457.69
2024-02-09T16:14:07.698Z,92449.31
2024-02-09T16:16:45.950Z,92452.81
2024-02-09T16:19:12.869Z,92456.03
2024-02-09T16:21:41.983Z,92470.94
2024-02-09T16:24:10.802Z,92479.00
2024-02-09T16:26:37.640Z,92480.50
2024-02-09T16:29:04.310Z,92478.72
2024-02-09T16:31:31.021Z,92484.50
2024-02-09T16:33:59.222Z,92484.22
2024-02-09T16:36:26.297Z,92480.09
2024-02-09T16:38:53.339Z,92488.03
2024-02-09T16:41:20.609Z,92480.31
2024-02-09T16:43:47.355Z,92490.91
2024-02-09T16:46:14.614Z,92484.97
2024-02-09T16:48:42.126Z,92484.38
2024-02-09T16:51:09.158Z,92479.69
2024-02-09T16:53:35.879Z,92482.50
2024-02-09T16:56:02.872Z,92484.81
2024-02-09T16:58:29.765Z,92486.72
2024-02-09T17:00:57.518Z,92491.38
2024-02-09T17:03:24.927Z,92498.38
2024-02-09T17:05:51.914Z,92502.41
2024-02-09T17:08:19.755Z,92497.28
2024-02-09T17:10:47.188Z,92498.09
2024-02-09T17:13:15.465Z,92493.81
2024-02-09T17:15:42.396Z,92493.25
2024-02-09T17:18:09.871Z,92489.50
2024-02-09T17:20:41.683Z,92489.59
2024-02-09T17:23:16.168Z,92473.75
2024-02-09T17:25:42.977Z,92487.00
2024-02-09T17:28:11.700Z,92485.19
2024-02-09T17:30:38.483Z,92479.91
2024-02-09T17:33:05.324Z,92477.13
2024-02-09T17:35:32.084Z,92473.78
2024-02-09T17:37:59.231Z,92474.56
2024-02-09T17:40:26.211Z,92470.88
2024-02-09T17:42:52.977Z,92467.78
2024-02-09T17:45:20.194Z,92470.09
2024-02-09T17:47:54.510Z,92469.53
2024-02-09T17:50:22.220Z,92463.91
2024-02-09T17:52:49.175Z,92462.47
2024-02-09T17:55:18.296Z,92454.28
2024-02-09T17:57:47.631Z,92452.28
2024-02-09T18:00:15.737Z,92461.06
2024-02-09T18:02:44.085Z,92453.78
2024-02-09T18:05:11.241Z,92449.19
2024-02-09T18:07:38.217Z,92452.22
2024-02-09T18:10:05.238Z,92438.47
2024-02-09T18:12:32.123Z,92443.72
2024-02-09T18:14:59.516Z,92442.38
2024-02-09T18:17:26.430Z,92438.16
2024-02-09T18:19:53.263Z,92431.81
2024-02-09T18:22:20.547Z,92429.28
2024-02-09T18:24:50.195Z,92432.91
2024-02-09T18:27:16.930Z,92436.28
2024-02-09T18:29:43.836Z,92436.00
2024-02-09T18:32:10.622Z,92427.28
2024-02-09T18:34:37.736Z,92423.63
2024-02-09T18:37:04.669Z,92421.22
2024-02-09T18:39:31.494Z,92428.53
2024-02-09T18:41:58.792Z,92418.44
2024-02-09T18:44:25.754Z,92421.97
2024-02-09T18:46:56.834Z,92413.00
2024-02-09T18:49:25.180Z,92415.63
2024-02-09T18:51:52.976Z,92402.44
2024-02-09T18:54:19.901Z,92392.69
2024-02-09T18:56:47.000Z,92396.66
2024-02-09T18:59:13.855Z,92395.63
2024-02-09T19:01:47.360Z,92393.94
2024-02-09T19:04:18.017Z,92375.00
2024-02-09T19:06:45.119Z,92386.75
2024-02-09T19:09:11.767Z,92377.28
2024-02-09T19:11:38.772Z,92382.38
2024-02-09T19:14:05.578Z,92388.78
2024-02-09T19:16:35.227Z,92375.78
2024-02-09T19:19:03.061Z,92371.13
2024-02-09T19:21:31.098Z,92370.94
2024-02-09T19:23:58.425Z,92374.50
2024-02-09T19:26:25.052Z,92374.19
2024-02-09T19:28:52.966Z,92377.00
2024-02-09T19:31:20.183Z,92368.47
2024-02-09T19:33:48.721Z,92366.47
2024-02-09T19:36:20.784Z,92370.19
2024-02-09T19:38:47.888Z,92369.56
2024-02-09T19:41:18.873Z,92366.31
2024-02-09T19:43:46.007Z,92364.75
2024-02-09T19:46:12.797Z,92367.69
2024-02-09T19:48:41.543Z,92357.75
2024-02-09T19:51:11.004Z,92353.91
2024-02-09T19:53:39.381Z,92360.25
2024-02-09T19:56:07.642Z,92352.81
2024-02-09T19:58:35.610Z,92357.31
2024-02-09T20:01:04.845Z,92350.03
2024-02-09T20:03:31.776Z,92343.81
2024-02-09T20:05:59.428Z,92339.78
2024-02-09T20:08:27.160Z,92339.75
2024-02-09T20:10:54.387Z,92342.56
2024-02-09T20:13:22.054Z,92331.25
2024-02-09T20:15:50.867Z,92340.56
2024-02-09T20:18:27.749Z,92326.13
2024-02-09T20:21:05.444Z,92332.31
2024-02-09T20:23:32.199Z,92337.91
2024-02-09T20:25:58.882Z,92325.91
2024-02-09T20:28:25.667Z,92331.34
2024-02-09T20:30:52.355Z,92324.88
2024-02-09T20:33:20.553Z,92325.78
2024-02-09T20:35:52.516Z,92318.53
2024-02-09T20:38:19.412Z,92323.50
2024-02-09T20:40:46.200Z,92321.72
2024-02-09T20:43:12.897Z,92330.69
2024-02-09T20:45:39.621Z,92324.41
2024-02-09T20:48:09.765Z,92323.78
2024-02-09T20:50:39.326Z,92328.50
2024-02-09T20:53:07.940Z,92320.44
2024-02-09T20:55:36.877Z,92323.88
2024-02-09T20:58:04.532Z,92318.81
2024-02-09T21:00:36.899Z,92320.47
2024-02-09T21:03:06.347Z,92308.91
2024-02-09T21:05:36.454Z,92311.28
2024-02-09T21:08:04.649Z,92309.97
2024-02-09T21:10:31.489Z,92316.06
2024-02-09T21:13:01.208Z,92311.25
2024-02-09T21:15:32.172Z,92311.19
2024-02-09T21:18:00.055Z,92306.41
2024-02-09T21:20:27.674Z,92306.75
2024-02-09T21:22:56.040Z,92314.22
2024-02-09T21:25:23.334Z,92310.31
2024-02-09T21:27:50.954Z,92303.69
2024-02-09T21:30:25.587Z,92299.66
2024-02-09T21:33:01.276Z,92306.72
2024-02-09T21:35:29.755Z,92310.13
2024-02-09T21:37:58.357Z,92306.56
2024-02-09T21:40:28.641Z,92313.59
2024-02-09T21:42:58.414Z,92301.84
2024-02-09T21:45:25.616Z,92296.19
2024-02-09T21:47:54.349Z,92305.34
2024-02-09T21:50:21.329Z,92297.84
2024-02-09T21:52:48.265Z,92303.84
2024-02-09T21:55:15.259Z,92300.09
2024-02-09T21:57:42.066Z,92301.59
2024-02-09T22:00:12.153Z,92290.16
2024-02-09T22:02:44.058Z,92285.09
2024-02-09T22:05:11.345Z,92284.22
2024-02-09T22:07:38.469Z,92280.53
2024-02-09T22:10:05.502Z,92277.69
2024-02-09T22:12:32.143Z,92274.59
2024-02-09T22:15:00.169Z,92273.53
2024-02-09T22:17:31.849Z,92279.63
2024-02-09T22:19:59.403Z,92272.41
2024-02-09T22:22:27.282Z,92279.22
2024-02-09T22:24:54.040Z,92261.47
2024-02-09T22:27:20.745Z,92264.66
2024-02-09T22:29:50.924Z,92264.38
2024-02-09T22:32:17.817Z,92266.53
2024-02-09T22:34:45.505Z,92267.13
2024-02-09T22:37:13.204Z,92267.97
2024-02-09T22:39:42.363Z,92265.66
2024-02-09T22:42:09.994Z,92265.97
2024-02-09T22:44:39.505Z,92267.63
2024-02-09T22:47:08.966Z,92267.13
2024-02-09T22:49:37.136Z,92268.81
2024-02-09T22:52:04.252Z,92271.47
2024-02-09T22:54:30.998Z,92267.75
2024-02-09T22:56:57.724Z,92270.88
2024-02-09T22:59:24.408Z,92275.00
2024-02-09T23:01:51.992Z,92276.41
2024-02-09T23:04:26.867Z,92275.16
2024-02-09T23:06:53.565Z,92278.34
2024-02-09T23:09:20.462Z,92280.75
2024-02-09T23:11:47.405Z,92272.28
2024-02-09T23:14:19.011Z,92273.28
2024-02-09T23:16:48.288Z,92273.72
2024-02-09T23:19:21.068Z,92280.41
2024-02-09T23:21:50.896Z,92285.69
2024-02-09T23:24:22.664Z,92290.91
2024-02-09T23:26:53.305Z,92290.28
2024-02-09T23:29:24.830Z,92277.53
2024-02-09T23:31:51.879Z,92287.25
2024-02-09T23:34:20.916Z,92282.63
2024-02-09T23:36:48.907Z,92282.59
2024-02-09T23:39:16.335Z,92288.69
2024-02-09T23:41:43.243Z,92281.50
2024-02-09T23:44:09.931Z,92282.75
2024-02-09T23:46:36.782Z,92281.22
2024-02-09T23:49:03.798Z,92283.63
2024-02-09T23:51:31.483Z,92291.88
2024-02-09T23:53:58.335Z,92288.97
2024-02-09T23:56:25.025Z,92287.03
2024-02-09T23:58:51.856Z,92290.06
